Time;durP1;ratioP1;P1;durP2;ratioP2;P2;SDS_P1;SDS_P2;PMS_P1;PMS_P2;Temp;Humidity;BMP_temperature;BMP_pressure;BME280_temperature;BME280_humidity;BME280_pressure;Samples;Min_cycle;Max_cycle;Signal;HPM_P1;HPM_P2
2021/12/01 00:00:43;;;;;;;10.38;4.97;;;;;;;-1.46;60.25;95102.28;5009665;28;20523;-79
2021/12/01 00:03:08;;;;;;;10.55;5.30;;;;;;;-1.57;61.08;95087.28;5009386;28;20385;-79
2021/12/01 00:05:34;;;;;;;6.78;4.30;;;;;;;-1.56;60.80;95094.22;5008008;28;20347;-79
2021/12/01 00:08:00;;;;;;;7.22;4.43;;;;;;;-1.57;60.56;95095.16;5007657;28;20041;-79
2021/12/01 00:10:26;;;;;;;8.10;4.10;;;;;;;-1.58;61.20;95090.84;4992263;28;20080;-79
2021/12/01 00:12:52;;;;;;;8.20;5.13;;;;;;;-1.62;61.09;95074.47;5007522;28;20034;-79
2021/12/01 00:15:18;;;;;;;6.47;4.15;;;;;;;-1.64;61.01;95063.22;5007840;28;20164;-78
2021/12/01 00:17:43;;;;;;;8.55;4.60;;;;;;;-1.66;61.20;95065.09;4991411;28;20034;-79
2021/12/01 00:20:10;;;;;;;7.82;4.85;;;;;;;-1.58;61.02;95063.72;5009290;28;20029;-78
2021/12/01 00:22:36;;;;;;;8.57;4.13;;;;;;;-1.56;60.48;95062.66;5008218;28;20029;-79
2021/12/01 00:25:01;;;;;;;7.20;4.53;;;;;;;-1.55;60.82;95061.72;5007357;28;20034;-79
2021/12/01 00:27:26;;;;;;;10.05;4.50;;;;;;;-1.53;60.45;95058.97;5008072;28;20022;-79
2021/12/01 00:29:52;;;;;;;8.05;4.75;;;;;;;-1.54;60.44;95049.38;5008434;28;20030;-79
2021/12/01 00:32:18;;;;;;;7.70;4.47;;;;;;;-1.59;60.83;95062.03;5008994;28;20073;-78
2021/12/01 00:34:43;;;;;;;6.90;3.88;;;;;;;-1.56;60.68;95072.31;4990983;28;20021;-78
2021/12/01 00:37:09;;;;;;;9.35;4.13;;;;;;;-1.52;61.08;95052.75;5007185;28;20133;-79
2021/12/01 00:39:34;;;;;;;11.85;4.32;;;;;;;-1.55;60.70;95056.47;4991539;28;20061;-78
2021/12/01 00:42:01;;;;;;;6.65;4.00;;;;;;;-1.62;61.15;95056.06;5007520;28;20060;-79
2021/12/01 00:44:31;;;;;;;7.05;4.07;;;;;;;-1.57;60.58;95053.09;5007112;28;20038;-79
2021/12/01 00:49:34;;;;;;;5.80;3.95;;;;;;;-1.65;61.47;95048.38;5007847;28;20037;-79
2021/12/01 00:52:00;;;;;;;5.75;3.83;;;;;;;-1.63;61.08;95043.84;5007759;28;20026;-79
2021/12/01 00:54:26;;;;;;;7.57;4.10;;;;;;;-1.72;61.25;95049.78;4990639;28;20044;-78
2021/12/01 00:56:51;;;;;;;11.95;4.88;;;;;;;-1.79;61.87;95054.63;5006742;28;20496;-78
2021/12/01 00:59:17;;;;;;;6.63;4.50;;;;;;;-1.78;61.80;95050.22;5006666;28;20456;-79
2021/12/01 01:01:43;;;;;;;9.02;4.15;;;;;;;-1.77;61.88;95046.63;5007271;28;20109;-79
2021/12/01 01:04:08;;;;;;;7.78;4.30;;;;;;;-1.87;61.76;95033.31;4989831;28;20064;-79
2021/12/01 01:06:34;;;;;;;7.97;4.72;;;;;;;-1.82;61.86;95036.44;5006919;28;20702;-79
2021/12/01 01:09:01;;;;;;;8.23;4.35;;;;;;;-1.81;61.75;95037.28;5006959;28;20026;-78
2021/12/01 01:16:58;;;;;;;5.43;3.45;;;;;;;-1.77;62.42;95049.25;5007131;28;20036;-80
2021/12/01 01:19:24;;;;;;;6.55;4.05;;;;;;;-1.78;62.22;95040.53;5007134;28;20033;-78
2021/12/01 01:21:51;;;;;;;8.85;4.32;;;;;;;-1.82;62.89;95046.13;5006519;28;20096;-78
2021/12/01 01:24:17;;;;;;;7.82;4.00;;;;;;;-1.78;62.91;95043.19;5008031;28;20544;-78
2021/12/01 01:26:42;;;;;;;7.13;3.70;;;;;;;-1.70;62.20;95062.81;5006720;28;20033;-79
2021/12/01 01:29:08;;;;;;;6.88;3.38;;;;;;;-1.67;62.64;95063.44;5006593;28;20030;-78
2021/12/01 01:31:34;;;;;;;6.25;3.78;;;;;;;-1.66;62.36;95062.47;5006143;28;20115;-78
2021/12/01 01:34:01;;;;;;;5.63;3.25;;;;;;;-1.66;62.74;95065.09;4990089;28;20046;-79
2021/12/01 01:36:27;;;;;;;9.07;4.03;;;;;;;-1.65;62.86;95056.28;5006403;28;20050;-79
2021/12/01 01:38:52;;;;;;;9.35;3.70;;;;;;;-1.68;63.25;95043.34;5007372;28;20033;-79
2021/12/01 01:41:18;;;;;;;6.60;3.47;;;;;;;-1.67;63.47;95039.75;5006351;28;20554;-79
2021/12/01 01:43:44;;;;;;;6.28;3.38;;;;;;;-1.67;63.66;95045.03;5005524;28;20081;-78
2021/12/01 01:46:10;;;;;;;4.80;2.80;;;;;;;-1.60;62.51;95042.78;5006972;28;20022;-77
2021/12/01 01:48:46;;;;;;;6.93;3.15;;;;;;;-1.59;63.24;95047.09;5006043;28;20018;-79
2021/12/01 01:51:12;;;;;;;8.20;3.15;;;;;;;-1.49;63.03;95036.75;5004795;28;20524;-78
2021/12/01 01:53:38;;;;;;;4.93;2.92;;;;;;;-1.46;64.07;95033.88;5005929;28;20033;-78
2021/12/01 01:56:04;;;;;;;4.10;2.88;;;;;;;-1.35;63.44;95029.63;4988885;28;20041;-79
2021/12/01 01:58:30;;;;;;;6.25;2.95;;;;;;;-1.16;60.86;95039.63;5004653;28;20076;-79
2021/12/01 02:01:06;;;;;;;4.47;2.53;;;;;;;-1.13;61.16;95036.78;5005100;28;20022;-78
2021/12/01 02:03:34;;;;;;;5.53;3.00;;;;;;;-1.04;60.84;95043.97;5005647;28;20517;-79
2021/12/01 02:05:59;;;;;;;5.22;2.90;;;;;;;-0.97;60.68;95036.47;5006633;28;20033;-79
2021/12/01 02:08:32;;;;;;;4.63;3.10;;;;;;;-1.02;61.08;95034.19;5006807;28;20022;-78
2021/12/01 02:10:58;;;;;;;3.97;2.75;;;;;;;-0.98;61.64;95032.13;5007291;28;20022;-78
2021/12/01 02:13:24;;;;;;;7.05;3.50;;;;;;;-1.01;61.46;95042.91;4988384;28;20041;-78
2021/12/01 02:15:50;;;;;;;5.72;3.25;;;;;;;-1.06;62.25;95031.88;5007249;28;20442;-79
2021/12/01 02:18:15;;;;;;;6.95;4.18;;;;;;;-1.03;62.06;95042.19;5004828;28;20034;-78
2021/12/01 02:21:03;;;;;;;5.93;3.38;;;;;;;-1.04;62.17;95038.72;5006941;28;20034;-78
2021/12/01 02:23:29;;;;;;;4.93;3.22;;;;;;;-1.02;62.28;95025.44;5005352;28;20022;-78
2021/12/01 02:25:55;;;;;;;5.03;3.55;;;;;;;-0.99;62.55;95019.94;5006464;28;20105;-79
2021/12/01 02:28:20;;;;;;;5.80;3.35;;;;;;;-1.01;62.73;95009.53;5006681;28;20037;-79
2021/12/01 02:30:46;;;;;;;6.88;3.72;;;;;;;-1.08;62.83;95013.56;5005035;28;20018;-79
2021/12/01 02:33:11;;;;;;;5.88;3.22;;;;;;;-1.06;62.33;95010.81;5005754;28;20026;-79
2021/12/01 02:35:37;;;;;;;4.30;3.20;;;;;;;-1.01;61.96;95011.31;5004500;28;20022;-78
2021/12/01 02:38:03;;;;;;;7.32;3.50;;;;;;;-0.94;61.90;94998.50;5005439;28;20026;-81
2021/12/01 02:40:29;;;;;;;4.38;3.15;;;;;;;-0.84;61.92;95014.47;4988454;28;20069;-78
2021/12/01 02:42:54;;;;;;;6.03;3.03;;;;;;;-0.87;61.61;95011.09;5006641;28;20030;-79
2021/12/01 02:45:19;;;;;;;4.38;2.88;;;;;;;-0.87;61.86;95008.47;5007071;28;20041;-80
2021/12/01 02:47:45;;;;;;;4.95;3.00;;;;;;;-0.88;62.33;95014.69;5005656;28;20018;-77
2021/12/01 02:50:11;;;;;;;5.80;2.97;;;;;;;-0.81;62.78;95014.22;5007166;28;20475;-78
2021/12/01 02:52:36;;;;;;;4.80;2.90;;;;;;;-0.73;62.66;95027.66;5005006;28;20064;-79
2021/12/01 02:55:06;;;;;;;4.00;3.03;;;;;;;-0.65;62.54;95040.22;4989392;28;20472;-78
2021/12/01 02:57:48;;;;;;;6.20;3.03;;;;;;;-0.63;63.03;95030.41;5005883;28;20045;-78
2021/12/01 03:00:15;;;;;;;5.88;3.80;;;;;;;-0.61;62.55;95035.56;5006504;28;20032;-77
2021/12/01 03:02:40;;;;;;;7.10;3.53;;;;;;;-0.62;62.47;95029.44;5006780;28;20072;-80
2021/12/01 03:05:06;;;;;;;5.47;3.55;;;;;;;-0.67;62.30;95023.69;5004690;28;20080;-80
2021/12/01 03:07:32;;;;;;;6.30;3.65;;;;;;;-0.65;62.35;95022.63;5005122;28;20385;-79
2021/12/01 03:09:57;;;;;;;7.95;4.03;;;;;;;-0.66;62.92;95039.38;5004831;28;20047;-78
2021/12/01 03:12:27;;;;;;;6.93;4.00;;;;;;;-0.67;62.97;95036.88;5005183;28;20038;-78
2021/12/01 03:14:53;;;;;;;4.32;3.45;;;;;;;-0.84;63.45;95023.22;5006050;28;20504;-79
2021/12/01 03:17:18;;;;;;;6.55;3.72;;;;;;;-0.80;63.04;95035.16;5005311;28;20030;-79
2021/12/01 03:19:44;;;;;;;6.35;3.58;;;;;;;-0.80;62.87;95037.81;5006193;28;20495;-78
2021/12/01 03:22:13;;;;;;;8.05;3.70;;;;;;;-0.78;62.46;95056.13;5006300;28;20099;-80
2021/12/01 03:24:39;;;;;;;5.70;3.53;;;;;;;-0.84;63.11;95062.72;5005311;28;20030;-79
2021/12/01 03:27:04;;;;;;;10.30;3.83;;;;;;;-0.88;63.37;95070.00;5010071;28;20418;-78
2021/12/01 03:29:33;;;;;;;5.90;3.97;;;;;;;-0.81;63.43;95072.16;5011621;28;20026;-77
2021/12/01 03:31:58;;;;;;;7.10;4.07;;;;;;;-0.76;63.16;95085.81;5010527;28;20088;-79
2021/12/01 03:34:24;;;;;;;6.60;3.80;;;;;;;-0.68;63.38;95091.34;5010231;28;20034;-78
2021/12/01 03:36:49;;;;;;;6.07;3.30;;;;;;;-0.95;63.17;95097.72;5009071;28;20046;-78
2021/12/01 03:39:14;;;;;;;4.65;3.13;;;;;;;-1.22;63.53;95093.53;5008583;28;20057;-78
2021/12/01 03:41:40;;;;;;;4.80;3.03;;;;;;;-1.19;63.12;95080.16;5009606;28;20114;-80
2021/12/01 03:44:06;;;;;;;4.95;3.05;;;;;;;-1.16;63.40;95079.94;5009425;28;20026;-80
2021/12/01 03:46:31;;;;;;;5.70;3.40;;;;;;;-1.02;62.73;95062.28;5008485;28;20026;-79
2021/12/01 03:48:56;;;;;;;5.30;3.28;;;;;;;-0.99;62.45;95059.41;5009248;28;20026;-79
2021/12/01 03:51:22;;;;;;;5.15;2.95;;;;;;;-1.01;62.46;95063.94;5008473;28;20030;-78
2021/12/01 03:53:49;;;;;;;5.30;3.90;;;;;;;-0.96;62.78;95064.47;5007517;28;20108;-79
2021/12/01 03:56:14;;;;;;;8.13;3.88;;;;;;;-0.92;62.91;95086.97;5009250;28;20512;-79
2021/12/01 03:58:39;;;;;;;8.60;4.13;;;;;;;-0.92;62.23;95081.69;5008848;28;20030;-80
2021/12/01 04:01:09;;;;;;;4.43;3.08;;;;;;;-0.88;62.10;95067.34;4991659;28;20504;-79
2021/12/01 04:03:35;;;;;;;5.65;3.83;;;;;;;-0.85;62.72;95070.72;5008333;28;20026;-78
2021/12/01 04:06:00;;;;;;;4.85;3.38;;;;;;;-0.77;62.29;95070.97;5008376;28;20512;-79
2021/12/01 04:08:26;;;;;;;7.05;4.03;;;;;;;-0.77;62.14;95063.91;5007974;28;20041;-79
2021/12/01 04:10:51;;;;;;;5.30;4.00;;;;;;;-0.71;62.27;95062.59;5008338;28;20042;-78
2021/12/01 04:13:17;;;;;;;8.05;3.47;;;;;;;-0.64;62.04;95058.56;5007942;28;20505;-77
2021/12/01 04:15:42;;;;;;;6.90;4.50;;;;;;;-0.60;61.87;95063.59;5008555;28;20397;-78
2021/12/01 04:18:08;;;;;;;5.47;3.83;;;;;;;-0.58;62.17;95065.13;5009095;28;20425;-79
2021/12/01 04:20:33;;;;;;;5.85;3.97;;;;;;;-0.53;62.12;95059.50;5008826;28;20033;-78
2021/12/01 04:22:59;;;;;;;6.03;4.28;;;;;;;-0.50;61.31;95054.03;5007299;28;20025;-79
2021/12/01 04:25:24;;;;;;;5.07;3.65;;;;;;;-0.44;61.35;95045.66;5007618;28;20030;-79
2021/12/01 04:27:49;;;;;;;4.75;3.47;;;;;;;-0.42;61.21;95048.97;5006836;28;20045;-80
2021/12/01 04:30:15;;;;;;;5.68;3.65;;;;;;;-0.39;61.12;95051.38;5009068;28;20464;-80
2021/12/01 04:32:41;;;;;;;7.65;3.80;;;;;;;-0.37;61.72;95046.00;5008188;28;20029;-79
2021/12/01 04:35:07;;;;;;;7.57;4.30;;;;;;;-0.33;61.57;95039.53;4987426;28;20664;-78
2021/12/01 04:37:34;;;;;;;6.28;4.07;;;;;;;-0.24;61.34;95047.69;4987445;28;20044;-77
2021/12/01 04:40:00;;;;;;;12.10;4.28;;;;;;;-0.21;60.84;95053.53;4988129;28;20041;-79
2021/12/01 04:42:25;;;;;;;8.75;5.13;;;;;;;-0.21;61.86;95058.00;5001463;28;20077;-79
2021/12/01 04:44:51;;;;;;;8.40;4.35;;;;;;;-0.16;61.08;95059.31;5006775;28;20044;-79
2021/12/01 04:47:19;;;;;;;6.43;4.07;;;;;;;-0.11;61.52;95068.66;5006695;28;20029;-78
2021/12/01 04:49:44;;;;;;;6.35;3.78;;;;;;;-0.16;61.19;95066.38;5005805;28;20025;-78
2021/12/01 04:52:10;;;;;;;6.32;3.78;;;;;;;-0.23;61.43;95075.72;5006876;28;20022;-78
2021/12/01 04:54:36;;;;;;;6.10;4.30;;;;;;;-0.17;62.10;95067.31;5004619;28;20121;-78
2021/12/01 04:57:02;;;;;;;7.90;4.70;;;;;;;-0.14;62.24;95075.84;5003755;28;20420;-79
2021/12/01 04:59:28;;;;;;;8.27;4.03;;;;;;;-0.10;61.67;95089.63;4989347;28;20117;-79
2021/12/01 05:01:54;;;;;;;6.93;3.90;;;;;;;-0.08;61.38;95095.59;5010569;28;20454;-79
2021/12/01 05:04:20;;;;;;;5.72;3.90;;;;;;;-0.10;62.00;95087.00;5003625;28;20026;-80
2021/12/01 05:06:46;;;;;;;6.85;3.72;;;;;;;-0.05;62.04;95091.91;5002815;28;20034;-79
2021/12/01 05:09:11;;;;;;;5.32;3.78;;;;;;;-0.09;62.21;95101.00;5005269;28;20062;-79
2021/12/01 05:11:37;;;;;;;7.65;3.92;;;;;;;-0.09;61.78;95112.41;5003647;28;20029;-79
2021/12/01 05:14:02;;;;;;;6.32;3.92;;;;;;;-0.09;61.80;95106.28;5003316;28;20030;-78
2021/12/01 05:16:28;;;;;;;7.07;4.10;;;;;;;-0.12;62.11;95115.28;5004445;28;20038;-79
2021/12/01 05:18:53;;;;;;;8.93;4.40;;;;;;;-0.12;61.50;95102.09;4988353;28;20034;-80
2021/12/01 05:21:19;;;;;;;6.50;4.28;;;;;;;-0.08;61.24;95110.59;5005761;28;20033;-79
2021/12/01 05:23:45;;;;;;;4.57;3.30;;;;;;;-0.10;61.70;95117.78;4989397;28;20364;-80
2021/12/01 05:26:11;;;;;;;5.45;3.50;;;;;;;-0.17;61.85;95118.25;5004826;28;20026;-83
2021/12/01 05:28:37;;;;;;;7.15;3.95;;;;;;;-0.16;62.02;95119.94;5006674;28;20029;-79
2021/12/01 05:31:03;;;;;;;8.98;4.50;;;;;;;-0.15;62.42;95126.06;5009178;28;20041;-79
2021/12/01 05:33:29;;;;;;;7.00;4.80;;;;;;;-0.20;61.60;95110.59;5010305;28;20695;-79
2021/12/01 05:35:54;;;;;;;8.48;4.85;;;;;;;-0.13;62.03;95117.06;4993366;28;20026;-80
2021/12/01 05:38:19;;;;;;;8.52;5.22;;;;;;;-0.10;61.70;95123.06;5004900;28;20034;-79
2021/12/01 05:40:50;;;;;;;11.45;6.35;;;;;;;-0.13;62.33;95117.06;5006420;28;20046;-78
2021/12/01 05:43:16;;;;;;;8.88;5.50;;;;;;;-0.07;62.30;95117.53;5006266;28;20352;-79
2021/12/01 05:45:41;;;;;;;13.20;6.03;;;;;;;-0.08;62.53;95116.69;5005460;28;20037;-79
2021/12/01 05:48:07;;;;;;;10.02;5.15;;;;;;;-0.11;62.38;95111.66;5005855;28;20064;-80
2021/12/01 05:50:32;;;;;;;9.57;4.65;;;;;;;-0.01;61.30;95117.91;5005353;28;20546;-79
2021/12/01 05:52:58;;;;;;;8.68;4.50;;;;;;;-0.09;61.63;95124.72;5005658;28;20073;-82
2021/12/01 05:55:23;;;;;;;11.45;5.35;;;;;;;-0.06;61.82;95116.56;5007049;28;20033;-81
2021/12/01 05:57:50;;;;;;;8.88;5.20;;;;;;;-0.15;62.55;95120.78;5006011;28;20018;-79
2021/12/01 06:00:16;;;;;;;10.18;5.03;;;;;;;-0.11;61.91;95108.22;4988491;28;20116;-80
2021/12/01 06:02:47;;;;;;;7.85;4.80;;;;;;;-0.02;61.48;95110.94;5005703;28;20038;-82
2021/12/01 06:05:12;;;;;;;12.18;6.15;;;;;;;0.02;61.86;95122.09;5006638;28;20028;-79
2021/12/01 06:07:38;;;;;;;9.23;5.63;;;;;;;0.01;62.21;95124.84;5003808;28;20030;-79
2021/12/01 06:10:03;;;;;;;11.43;5.43;;;;;;;0.09;61.50;95109.28;5004391;28;20018;-78
2021/12/01 06:12:29;;;;;;;8.95;5.05;;;;;;;-0.05;61.74;95110.38;5001591;28;20466;-79
2021/12/01 06:14:55;;;;;;;11.13;4.60;;;;;;;0.05;62.43;95106.03;5005547;28;20022;-82
2021/12/01 06:17:20;;;;;;;9.20;4.75;;;;;;;0.10;61.86;95108.31;5004315;28;20034;-80
2021/12/01 06:19:46;;;;;;;10.27;3.95;;;;;;;-0.01;62.51;95106.53;5005228;28;20033;-79
2021/12/01 06:22:11;;;;;;;9.07;4.40;;;;;;;0.03;62.30;95110.59;5006121;28;20030;-79
2021/12/01 06:24:37;;;;;;;6.10;4.13;;;;;;;0.05;62.94;95123.69;5006104;28;20430;-79
2021/12/01 06:27:04;;;;;;;9.50;4.75;;;;;;;0.02;63.34;95134.47;5003778;28;20022;-79
2021/12/01 06:29:29;;;;;;;9.57;4.57;;;;;;;0.13;62.22;95145.00;4997253;28;20035;-81
2021/12/01 06:31:54;;;;;;;8.20;4.88;;;;;;;0.22;62.09;95136.38;4999069;28;20029;-84
2021/12/01 06:34:20;;;;;;;9.98;5.18;;;;;;;0.29;62.31;95144.63;5003307;28;20037;-81
2021/12/01 06:36:45;;;;;;;9.55;4.82;;;;;;;0.46;61.98;95134.56;4996917;28;20461;-81
2021/12/01 06:39:11;;;;;;;10.38;5.55;;;;;;;0.54;61.94;95147.97;4999344;28;20204;-82
2021/12/01 06:41:36;;;;;;;9.82;5.45;;;;;;;0.67;61.66;95142.56;5005019;28;20038;-82
2021/12/01 06:44:02;;;;;;;8.23;4.30;;;;;;;0.82;61.19;95135.19;5002841;28;20128;-81
2021/12/01 06:46:28;;;;;;;11.15;4.97;;;;;;;0.89;59.95;95148.75;4987044;28;20116;-82
2021/12/01 06:48:54;;;;;;;12.43;5.15;;;;;;;0.98;60.01;95150.63;4988592;28;20038;-81
2021/12/01 06:51:20;;;;;;;8.20;4.53;;;;;;;1.09;59.50;95146.28;5001958;28;20118;-81
2021/12/01 06:53:45;;;;;;;7.53;4.50;;;;;;;1.16;59.09;95150.09;5005367;28;20519;-83
2021/12/01 06:56:10;;;;;;;8.02;4.10;;;;;;;1.34;59.13;95160.13;4986210;28;20437;-82
2021/12/01 06:58:37;;;;;;;7.32;3.92;;;;;;;1.45;58.16;95151.31;5002276;28;20030;-83
2021/12/01 07:01:05;;;;;;;5.97;4.07;;;;;;;1.58;57.62;95177.56;5006448;28;20034;-83
2021/12/01 07:03:31;;;;;;;7.85;4.30;;;;;;;1.79;56.94;95161.69;4990411;28;20551;-82
2021/12/01 07:05:56;;;;;;;6.68;3.50;;;;;;;1.95;56.63;95165.72;5008095;28;20156;-83
2021/12/01 07:08:22;;;;;;;8.00;3.70;;;;;;;2.10;57.03;95169.69;5006268;28;20460;-85
2021/12/01 07:10:47;;;;;;;6.50;3.58;;;;;;;2.31;56.39;95167.97;5007130;28;20041;-83
2021/12/01 07:13:13;;;;;;;8.00;4.07;;;;;;;2.54;56.40;95171.28;5008500;28;20056;-83
2021/12/01 07:15:38;;;;;;;6.22;4.03;;;;;;;2.81;55.86;95158.38;5008030;28;20026;-81
2021/12/01 07:18:04;;;;;;;9.25;3.83;;;;;;;3.04;55.21;95147.56;5009051;28;20034;-82
2021/12/01 07:20:29;;;;;;;10.15;4.60;;;;;;;3.03;56.11;95148.53;4991709;28;20036;-83
2021/12/01 07:22:55;;;;;;;10.65;5.47;;;;;;;2.99;55.58;95161.22;5008941;28;20026;-82
2021/12/01 07:25:20;;;;;;;12.23;6.85;;;;;;;3.20;55.26;95157.63;5009321;28;20030;-82
2021/12/01 07:27:45;;;;;;;10.45;5.32;;;;;;;3.48;54.97;95164.91;4991460;28;20493;-82
2021/12/01 07:30:11;;;;;;;10.80;5.32;;;;;;;3.23;54.21;95162.66;5007575;28;20036;-82
2021/12/01 07:32:37;;;;;;;14.30;5.93;;;;;;;3.28;53.70;95165.72;5009528;28;20030;-83
2021/12/01 07:35:02;;;;;;;13.05;6.00;;;;;;;3.07;54.48;95164.03;4991977;28;20092;-83
2021/12/01 07:37:28;;;;;;;11.02;6.13;;;;;;;3.36;54.34;95167.69;5008366;28;20112;-81
2021/12/01 07:39:53;;;;;;;11.38;5.80;;;;;;;3.61;54.01;95172.56;4991849;28;20029;-83
2021/12/01 07:42:18;;;;;;;13.25;5.60;;;;;;;3.73;53.43;95163.50;5009639;28;20041;-84
2021/12/01 07:44:44;;;;;;;13.68;6.32;;;;;;;3.77;53.91;95161.41;5010027;28;20088;-83
2021/12/01 07:47:11;;;;;;;10.88;6.20;;;;;;;3.95;53.70;95161.50;5009737;28;20018;-82
2021/12/01 07:49:37;;;;;;;14.32;6.63;;;;;;;4.19;54.01;95173.47;5008858;28;20560;-81
2021/12/01 07:52:04;;;;;;;8.95;5.05;;;;;;;4.42;53.78;95181.06;5009711;28;20041;-82
2021/12/01 07:54:29;;;;;;;7.78;4.40;;;;;;;4.06;54.58;95182.56;5008702;28;20022;-84
2021/12/01 07:56:55;;;;;;;10.82;4.47;;;;;;;4.03;54.22;95177.53;4991786;28;20109;-84
2021/12/01 07:59:20;;;;;;;7.18;4.10;;;;;;;3.84;54.94;95181.06;4992037;28;20080;-83
2021/12/01 08:01:46;;;;;;;6.60;3.80;;;;;;;3.87;55.26;95186.09;5007850;28;20489;-82
2021/12/01 08:04:11;;;;;;;9.60;4.60;;;;;;;3.83;55.63;95188.19;5009336;28;20049;-84
2021/12/01 08:06:37;;;;;;;6.13;4.25;;;;;;;3.78;56.62;95193.09;4991783;28;20022;-83
2021/12/01 08:09:03;;;;;;;8.10;4.18;;;;;;;3.77;56.37;95191.41;4991531;28;20105;-82
2021/12/01 08:11:29;;;;;;;7.80;4.05;;;;;;;3.77;56.86;95201.19;4990872;28;20037;-82
2021/12/01 08:13:54;;;;;;;8.73;3.95;;;;;;;3.78;57.02;95193.09;5008490;28;20041;-83
2021/12/01 08:16:20;;;;;;;6.13;4.22;;;;;;;3.79;57.56;95194.75;5008074;28;20480;-81
2021/12/01 08:18:51;;;;;;;7.38;4.45;;;;;;;3.82;57.24;95202.44;5007729;28;20033;-82
2021/12/01 08:21:17;;;;;;;10.30;4.93;;;;;;;3.91;57.03;95200.75;5007781;28;20489;-82
2021/12/01 08:23:42;;;;;;;8.68;4.68;;;;;;;4.05;57.73;95185.34;5008027;28;20024;-82
2021/12/01 08:26:08;;;;;;;13.25;4.85;;;;;;;4.19;57.57;95194.72;4986429;28;20027;-82
2021/12/01 08:28:33;;;;;;;8.45;3.65;;;;;;;4.51;56.06;95198.81;4996355;28;20029;-82
2021/12/01 08:30:59;;;;;;;5.22;3.65;;;;;;;4.73;55.35;95178.16;5004635;28;20079;-81
2021/12/01 08:33:25;;;;;;;7.32;3.63;;;;;;;4.90;54.71;95171.22;5007728;28;20025;-82
2021/12/01 08:35:50;;;;;;;8.73;4.25;;;;;;;4.99;54.71;95174.81;5007331;28;20032;-83
2021/12/01 08:38:16;;;;;;;8.77;5.25;;;;;;;5.07;54.45;95177.56;4990238;28;20053;-82
2021/12/01 08:40:42;;;;;;;7.72;4.60;;;;;;;5.13;54.88;95180.59;5007106;28;20038;-82
2021/12/01 08:43:08;;;;;;;7.28;4.65;;;;;;;5.13;54.15;95178.78;4990969;28;20041;-82
2021/12/01 08:45:33;;;;;;;11.80;5.20;;;;;;;4.99;54.33;95174.81;5007118;28;20040;-82
2021/12/01 08:47:59;;;;;;;13.77;4.68;;;;;;;4.92;54.42;95179.88;5007867;28;20042;-81
2021/12/01 08:50:24;;;;;;;8.07;4.03;;;;;;;4.74;54.62;95181.66;5008003;28;20034;-81
2021/12/01 08:52:50;;;;;;;5.53;3.30;;;;;;;4.72;54.84;95173.00;5006229;28;20026;-81
2021/12/01 08:55:15;;;;;;;7.25;3.63;;;;;;;4.52;54.89;95179.22;5007231;28;20033;-81
2021/12/01 08:57:42;;;;;;;8.30;3.85;;;;;;;4.48;55.29;95184.97;5005626;28;20026;-83
2021/12/01 09:00:08;;;;;;;8.68;4.70;;;;;;;4.31;55.59;95182.09;5008307;28;20032;-81
2021/12/01 09:02:34;;;;;;;8.10;4.72;;;;;;;4.31;55.83;95177.63;5006170;28;20030;-81
2021/12/01 09:04:59;;;;;;;10.57;5.25;;;;;;;4.33;56.08;95175.66;5008133;28;20023;-80
2021/12/01 09:07:25;;;;;;;11.23;5.43;;;;;;;4.38;55.20;95174.38;5009363;28;20049;-83
2021/12/01 09:09:50;;;;;;;11.15;4.80;;;;;;;4.39;55.04;95184.00;4992095;28;20021;-84
2021/12/01 09:12:16;;;;;;;9.55;5.15;;;;;;;4.30;55.83;95183.09;4989793;28;20038;-83
2021/12/01 09:14:43;;;;;;;12.80;7.20;;;;;;;4.26;56.66;95190.50;4989772;28;20552;-81
2021/12/01 09:17:12;;;;;;;23.60;10.15;;;;;;;4.24;56.59;95184.47;5006138;28;20474;-84
2021/12/01 09:19:37;;;;;;;18.17;8.18;;;;;;;4.36;57.64;95194.94;5007229;28;20109;-83
2021/12/01 09:22:02;;;;;;;16.35;8.98;;;;;;;4.47;56.85;95194.75;4988802;28;20041;-82
2021/12/01 09:24:28;;;;;;;15.73;8.55;;;;;;;4.52;57.18;95204.94;4972896;28;20408;-82
2021/12/01 09:26:53;;;;;;;12.82;6.95;;;;;;;4.49;56.67;95200.78;5007210;28;20326;-82
2021/12/01 09:29:19;;;;;;;16.10;6.82;;;;;;;4.46;56.86;95198.41;5006756;28;20030;-81
2021/12/01 09:31:44;;;;;;;10.23;6.00;;;;;;;4.44;56.64;95197.72;5004887;28;20477;-82
2021/12/01 09:34:10;;;;;;;10.45;7.28;;;;;;;4.40;56.94;95205.13;4982331;28;20025;-81
2021/12/01 09:36:35;;;;;;;10.95;5.18;;;;;;;4.40;57.01;95191.84;4999086;28;20804;-79
2021/12/01 09:39:01;;;;;;;7.90;5.68;;;;;;;4.42;56.58;95197.84;5003860;28;20034;-84
2021/12/01 09:41:26;;;;;;;6.95;4.53;;;;;;;4.47;56.90;95189.44;4970022;28;20323;-83
2021/12/01 09:43:52;;;;;;;10.00;4.70;;;;;;;4.55;56.08;95186.91;5003898;28;20073;-81
2021/12/01 09:46:17;;;;;;;8.57;5.07;;;;;;;4.62;56.58;95187.16;5002884;28;20112;-84
2021/12/01 09:48:43;;;;;;;6.20;4.30;;;;;;;4.65;56.36;95186.03;5005658;28;20091;-83
2021/12/01 09:51:09;;;;;;;7.63;4.38;;;;;;;4.77;56.29;95182.19;5000742;28;20465;-83
2021/12/01 09:53:34;;;;;;;7.93;4.45;;;;;;;4.77;55.88;95174.22;5003850;28;20057;-84
2021/12/01 09:56:00;;;;;;;6.80;3.95;;;;;;;4.81;55.85;95180.94;4988594;28;20030;-84
2021/12/01 09:58:30;;;;;;;9.20;4.32;;;;;;;4.81;55.58;95178.28;5005374;28;20029;-84
2021/12/01 10:01:01;;;;;;;6.80;4.13;;;;;;;4.66;56.52;95174.44;4989417;28;20045;-83
2021/12/01 10:03:28;;;;;;;9.13;4.78;;;;;;;4.72;56.61;95179.16;5005696;28;20045;-85
2021/12/01 10:06:04;;;;;;;6.85;4.03;;;;;;;4.76;56.75;95179.69;4985385;28;20085;-84
2021/12/01 10:08:40;;;;;;;10.05;4.78;;;;;;;4.81;56.95;95183.59;5003207;28;20034;-84
2021/12/01 10:11:19;;;;;;;8.85;4.63;;;;;;;4.84;56.54;95186.94;4997437;28;20382;-81
2021/12/01 10:13:48;;;;;;;7.00;4.75;;;;;;;4.86;56.66;95184.94;4996406;28;20038;-84
2021/12/01 10:16:14;;;;;;;8.05;4.45;;;;;;;4.87;56.26;95176.84;5005364;28;20044;-86
2021/12/01 10:18:44;;;;;;;10.65;4.85;;;;;;;4.88;56.34;95177.69;4997269;28;20030;-83
2021/12/01 10:21:12;;;;;;;7.70;4.28;;;;;;;4.80;56.85;95176.56;4987030;28;20030;-81
2021/12/01 10:23:41;;;;;;;6.65;3.45;;;;;;;4.79;56.64;95166.94;5005872;28;20030;-81
2021/12/01 10:26:31;;;;;;;11.30;4.05;;;;;;;4.73;56.06;95153.41;5005115;28;20460;-81
2021/12/01 10:29:01;;;;;;;8.73;3.80;;;;;;;4.63;56.53;95158.75;4988329;28;20061;-81
2021/12/01 10:31:30;;;;;;;5.22;3.13;;;;;;;4.65;56.79;95170.09;5002695;28;20498;-83
2021/12/01 10:34:11;;;;;;;5.15;3.53;;;;;;;4.63;57.48;95166.72;5005665;28;20038;-81
2021/12/01 10:36:37;;;;;;;6.68;4.15;;;;;;;4.73;57.82;95161.38;4980113;28;20029;-86
2021/12/01 10:39:04;;;;;;;8.73;3.83;;;;;;;4.72;57.06;95173.84;5010609;28;20037;-80
2021/12/01 10:41:34;;;;;;;6.63;3.95;;;;;;;4.76;57.20;95172.56;4993182;28;20069;-81
2021/12/01 10:43:59;;;;;;;5.93;3.85;;;;;;;4.80;57.51;95173.09;5010800;28;20042;-79
2021/12/01 10:46:24;;;;;;;5.93;4.38;;;;;;;4.90;57.41;95173.06;4993700;28;20038;-82
2021/12/01 10:49:01;;;;;;;8.52;4.18;;;;;;;4.97;57.24;95179.44;4996314;28;20044;-81
2021/12/01 10:51:35;;;;;;;7.68;3.80;;;;;;;5.10;56.58;95171.13;5010609;28;20083;-80
2021/12/01 10:54:00;;;;;;;7.55;4.15;;;;;;;5.12;56.71;95169.16;5010696;28;20092;-81
2021/12/01 10:56:26;;;;;;;7.25;3.83;;;;;;;5.18;56.04;95171.22;5010119;28;20018;-81
2021/12/01 10:58:51;;;;;;;5.90;3.92;;;;;;;5.23;56.63;95160.13;4990398;28;20033;-81
2021/12/01 11:01:21;;;;;;;6.25;4.07;;;;;;;5.31;56.80;95154.88;4993169;28;20084;-81
2021/12/01 11:03:47;;;;;;;7.30;4.57;;;;;;;5.36;56.27;95154.44;4992552;28;20028;-82
2021/12/01 11:06:37;;;;;;;7.97;4.07;;;;;;;5.40;56.71;95154.97;5011785;28;20117;-82
2021/12/01 11:09:02;;;;;;;14.23;5.03;;;;;;;5.44;56.49;95141.22;5006634;28;20026;-80
2021/12/01 11:11:54;;;;;;;6.13;4.50;;;;;;;5.45;56.42;95139.38;5009067;28;20087;-80
2021/12/01 11:14:22;;;;;;;7.53;4.38;;;;;;;5.46;56.20;95138.41;5008648;28;20498;-81
2021/12/01 11:16:47;;;;;;;5.60;3.72;;;;;;;5.39;55.92;95134.66;5007129;28;20455;-81
2021/12/01 11:19:14;;;;;;;6.70;4.07;;;;;;;5.42;56.93;95129.03;5007529;28;20542;-80
2021/12/01 11:21:40;;;;;;;7.80;4.10;;;;;;;5.41;56.63;95130.03;5005863;28;20105;-81
2021/12/01 11:24:07;;;;;;;6.18;4.03;;;;;;;5.48;56.20;95125.75;4989251;28;20049;-80
2021/12/01 11:26:33;;;;;;;9.25;4.25;;;;;;;5.57;55.81;95130.19;5005065;28;20048;-80
2021/12/01 11:28:59;;;;;;;9.02;4.88;;;;;;;5.61;56.45;95125.38;5011463;28;20034;-82
2021/12/01 11:31:34;;;;;;;9.45;5.20;;;;;;;5.66;55.70;95123.09;4993582;28;20080;-80
2021/12/01 11:34:01;;;;;;;10.63;4.75;;;;;;;5.68;56.02;95120.28;5012957;28;20093;-80
2021/12/01 11:36:29;;;;;;;8.18;4.55;;;;;;;5.66;55.67;95117.78;5009806;28;20023;-80
2021/12/01 11:38:59;;;;;;;6.70;4.13;;;;;;;5.73;54.86;95118.00;4992815;28;20038;-81
2021/12/01 11:41:27;;;;;;;6.93;3.88;;;;;;;5.79;55.01;95122.69;5009933;28;20109;-81